createdAt,value
2023-02-27T00:01:12.012Z,53.36
2023-02-27T00:04:14.755Z,53.51
2023-02-27T00:07:17.809Z,53.99
2023-02-27T00:10:20.609Z,53.96
2023-02-27T00:13:22.844Z,54.15
2023-02-27T00:16:25.414Z,54.35
2023-02-27T00:19:27.698Z,53.93
2023-02-27T00:22:30.177Z,53.57
2023-02-27T00:25:35.317Z,54.51
2023-02-27T00:28:37.730Z,54.83
2023-02-27T00:31:39.934Z,54.26
2023-02-27T00:34:42.524Z,54.86
2023-02-27T00:37:45.750Z,54.82
2023-02-27T00:40:48.197Z,55.08
2023-02-27T00:43:50.322Z,53.99
2023-02-27T00:46:53.756Z,55.02
2023-02-27T00:49:56.054Z,54.99
2023-02-27T00:52:58.630Z,55.75
2023-02-27T00:56:00.878Z,55.29
2023-02-27T00:59:04.121Z,55.10
2023-02-27T01:02:06.290Z,55.40
2023-02-27T01:05:10.096Z,55.44
2023-02-27T01:08:12.549Z,54.99
2023-02-27T01:11:14.933Z,55.33
2023-02-27T01:14:17.187Z,55.29
2023-02-27T01:17:20.818Z,55.41
2023-02-27T01:20:22.995Z,56.46
2023-02-27T01:23:25.604Z,55.83
2023-02-27T01:26:27.907Z,55.74
2023-02-27T01:29:30.356Z,55.88
2023-02-27T01:32:32.836Z,55.67
2023-02-27T01:35:35.361Z,56.34
2023-02-27T01:38:37.567Z,55.55
2023-02-27T01:41:40.382Z,56.83
2023-02-27T01:45:01.158Z,55.72
2023-02-27T01:48:18.528Z,55.36
2023-02-27T01:51:21.888Z,55.38
2023-02-27T01:54:26.878Z,55.21
2023-02-27T01:57:29.364Z,55.28
2023-02-27T02:00:31.872Z,55.10
2023-02-27T02:03:43.219Z,55.57
2023-02-27T02:06:49.432Z,54.92
2023-02-27T02:09:55.143Z,55.53
2023-02-27T02:12:59.221Z,55.82
2023-02-27T02:16:12.016Z,54.19
2023-02-27T02:19:33.295Z,55.11
2023-02-27T02:23:03.859Z,53.56
2023-02-27T02:26:33.538Z,54.13
2023-02-27T02:30:20.946Z,53.85
2023-02-27T02:33:49.404Z,54.19
2023-02-27T02:36:55.033Z,54.39
2023-02-27T02:40:21.414Z,54.37
2023-02-27T02:43:35.732Z,55.49
2023-02-27T02:46:49.946Z,53.66
2023-02-27T02:49:58.042Z,54.01
2023-02-27T02:53:16.240Z,53.72
2023-02-27T02:56:33.744Z,54.17
2023-02-27T02:59:46.458Z,54.29
2023-02-27T03:02:54.921Z,53.31
2023-02-27T03:06:04.413Z,54.35
2023-02-27T03:09:39.375Z,54.61
2023-02-27T03:12:46.746Z,53.98
2023-02-27T03:16:16.004Z,53.42
2023-02-27T03:19:25.889Z,53.31
2023-02-27T03:22:34.333Z,53.14
2023-02-27T03:25:37.935Z,53.56
2023-02-27T03:28:52.976Z,52.54
2023-02-27T03:32:08.376Z,53.06
2023-02-27T03:35:12.440Z,52.67
2023-02-27T03:38:27.907Z,52.59
2023-02-27T03:42:26.360Z,52.73
2023-02-27T03:45:45.471Z,52.57
2023-02-27T03:48:48.744Z,51.56
2023-02-27T03:51:51.291Z,51.89
2023-02-27T03:55:00.384Z,51.79
2023-02-27T03:58:02.665Z,51.94
2023-02-27T04:01:05.684Z,51.86
2023-02-27T04:04:12.335Z,51.29
2023-02-27T04:07:54.194Z,50.84
2023-02-27T04:11:30.515Z,51.47
2023-02-27T04:15:08.907Z,51.26
2023-02-27T04:18:33.099Z,50.71
2023-02-27T04:21:56.749Z,51.44
2023-02-27T04:25:05.769Z,51.25
2023-02-27T04:28:17.474Z,50.71
2023-02-27T04:31:28.081Z,51.11
2023-02-27T04:34:42.257Z,51.15
2023-02-27T04:37:54.175Z,51.01
2023-02-27T04:41:18.084Z,51.53
2023-02-27T04:44:23.878Z,51.18
2023-02-27T04:47:31.312Z,50.59
2023-02-27T04:50:57.601Z,50.91
2023-02-27T04:54:06.413Z,50.73
2023-02-27T04:57:16.896Z,51.27
2023-02-27T05:00:22.782Z,50.57
2023-02-27T05:03:29.624Z,50.40
2023-02-27T05:06:37.059Z,51.17
2023-02-27T05:09:48.501Z,51.14
2023-02-27T05:12:57.056Z,51.21
2023-02-27T05:16:32.956Z,52.01
2023-02-27T05:19:39.342Z,50.64
2023-02-27T05:23:13.664Z,51.17
2023-02-27T05:26:30.069Z,50.82
2023-02-27T05:29:52.624Z,50.60
2023-02-27T05:33:02.651Z,50.61
2023-02-27T05:36:21.998Z,49.99
2023-02-27T05:39:29.955Z,50.39
2023-02-27T05:42:38.717Z,50.64
2023-02-27T05:45:48.513Z,50.34
2023-02-27T05:48:57.269Z,50.04
2023-02-27T05:52:03.100Z,49.60
2023-02-27T05:55:35.841Z,50.40
2023-02-27T05:58:45.839Z,49.07
2023-02-27T06:01:48.429Z,49.48
2023-02-27T06:04:51.081Z,49.02
2023-02-27T06:07:53.232Z,49.31
2023-02-27T06:10:55.797Z,49.23
2023-02-27T06:13:57.977Z,48.96
2023-02-27T06:17:00.655Z,49.24
2023-02-27T06:20:05.623Z,50.19
2023-02-27T06:23:08.154Z,49.08
2023-02-27T06:26:14.133Z,49.12
2023-02-27T06:29:17.453Z,48.91
2023-02-27T06:32:20.955Z,48.54
2023-02-27T06:35:23.669Z,48.71
2023-02-27T06:38:26.115Z,48.41
2023-02-27T06:41:29.356Z,48.53
2023-02-27T06:44:31.836Z,49.25
2023-02-27T06:47:34.403Z,48.41
2023-02-27T06:50:36.567Z,48.62
2023-02-27T06:53:40.459Z,48.22
2023-02-27T06:56:42.619Z,48.55
2023-02-27T06:59:45.401Z,47.77
2023-02-27T07:02:47.796Z,48.41
2023-02-27T07:05:50.421Z,47.59
2023-02-27T07:09:01.638Z,47.71
2023-02-27T07:12:09.437Z,47.70
2023-02-27T07:15:12.199Z,47.81
2023-02-27T07:18:14.863Z,48.62
2023-02-27T07:21:17.151Z,48.40
2023-02-27T07:24:19.733Z,47.57
2023-02-27T07:27:22.009Z,47.44
2023-02-27T07:30:24.447Z,46.30
2023-02-27T07:33:26.644Z,47.40
2023-02-27T07:36:31.023Z,46.86
2023-02-27T07:39:33.267Z,47.16
2023-02-27T07:42:35.809Z,47.65
2023-02-27T07:45:38.046Z,48.00
2023-02-27T07:48:40.632Z,46.55
2023-02-27T07:51:42.770Z,47.66
2023-02-27T07:54:45.317Z,47.68
2023-02-27T07:57:47.512Z,46.66
2023-02-27T08:00:50.002Z,46.53
2023-02-27T08:03:52.528Z,46.89
2023-02-27T08:06:54.726Z,47.72
2023-02-27T08:09:57.387Z,47.19
2023-02-27T08:12:59.528Z,45.99
2023-02-27T08:16:02.571Z,45.98
2023-02-27T08:19:04.964Z,46.54
2023-02-27T08:22:07.732Z,47.80
2023-02-27T08:25:11.299Z,46.77
2023-02-27T08:28:13.947Z,47.23
2023-02-27T08:31:16.141Z,46.05
2023-02-27T08:34:18.656Z,46.60
2023-02-27T08:37:25.382Z,45.97
2023-02-27T08:40:28.154Z,47.37
2023-02-27T08:43:30.440Z,47.70
2023-02-27T08:46:32.868Z,46.92
2023-02-27T08:49:35.150Z,47.02
2023-02-27T08:52:38.547Z,47.29
2023-02-27T08:55:40.752Z,46.96
2023-02-27T08:58:43.161Z,45.81
2023-02-27T09:01:45.368Z,46.28
2023-02-27T09:04:47.814Z,45.99
2023-02-27T09:07:50.469Z,45.77
2023-02-27T09:10:57.325Z,44.79
2023-02-27T09:13:59.498Z,44.55
2023-02-27T09:17:02.281Z,44.03
2023-02-27T09:20:09.737Z,44.96
2023-02-27T09:23:12.271Z,45.44
2023-02-27T09:26:14.524Z,44.80
2023-02-27T09:29:18.762Z,45.04
2023-02-27T09:32:24.308Z,44.92
2023-02-27T09:35:27.397Z,44.42
2023-02-27T09:38:29.601Z,44.64
2023-02-27T09:41:44.117Z,45.05
2023-02-27T09:45:23.518Z,44.02
2023-02-27T09:48:35.066Z,43.85
2023-02-27T09:51:37.244Z,43.87
2023-02-27T09:54:39.698Z,45.02
2023-02-27T09:57:56.343Z,44.79
2023-02-27T10:01:25.661Z,44.60
2023-02-27T10:04:32.565Z,44.92
2023-02-27T10:08:05.179Z,44.49
2023-02-27T10:11:11.969Z,44.77
2023-02-27T10:14:42.105Z,43.71
2023-02-27T10:18:09.953Z,45.49
2023-02-27T10:21:31.156Z,44.43
2023-02-27T10:24:49.199Z,44.10
2023-02-27T10:28:02.227Z,43.83
2023-02-27T10:31:19.126Z,43.68
2023-02-27T10:34:24.353Z,43.35
2023-02-27T10:37:28.018Z,44.76
2023-02-27T10:40:31.223Z,44.21
2023-02-27T10:43:33.769Z,43.41
2023-02-27T10:46:39.806Z,42.84
2023-02-27T10:49:43.966Z,42.82
2023-02-27T10:52:51.152Z,43.70
2023-02-27T10:56:13.350Z,42.23
2023-02-27T10:59:22.709Z,42.75
2023-02-27T11:02:32.654Z,43.19
2023-02-27T11:05:36.977Z,43.33
2023-02-27T11:08:39.717Z,41.53
2023-02-27T11:11:41.920Z,42.26
2023-02-27T11:14:49.898Z,42.49
2023-02-27T11:17:53.183Z,41.89
2023-02-27T11:21:18.056Z,43.02
2023-02-27T11:24:20.609Z,41.83
2023-02-27T11:27:29.864Z,42.42
2023-02-27T11:30:32.197Z,43.29
2023-02-27T11:33:57.337Z,41.28
2023-02-27T11:37:06.230Z,42.42
2023-02-27T11:40:08.909Z,42.08
2023-02-27T11:43:20.589Z,43.46
2023-02-27T11:46:47.127Z,41.92
2023-02-27T11:50:08.908Z,41.73
2023-02-27T11:53:23.782Z,41.92
2023-02-27T11:56:36.998Z,41.71
2023-02-27T11:59:54.480Z,41.20
2023-02-27T12:03:05.518Z,40.92
2023-02-27T12:06:19.487Z,40.00
2023-02-27T12:09:36.173Z,41.16
2023-02-27T12:12:48.986Z,40.42
2023-02-27T12:16:32.450Z,40.12
2023-02-27T12:19:44.289Z,41.23
2023-02-27T12:22:50.958Z,40.00
2023-02-27T12:26:06.535Z,39.71
2023-02-27T12:29:11.792Z,40.03
2023-02-27T12:32:33.776Z,40.49
2023-02-27T12:35:36.053Z,39.70
2023-02-27T12:38:38.824Z,39.63
2023-02-27T12:41:55.207Z,39.61
2023-02-27T12:45:12.614Z,40.67
2023-02-27T12:48:15.085Z,40.54
2023-02-27T12:51:34.433Z,39.28
2023-02-27T12:55:04.505Z,38.81
2023-02-27T12:58:18.869Z,38.71
2023-02-27T13:01:32.034Z,38.82
2023-02-27T13:04:46.114Z,38.82
2023-02-27T13:08:12.534Z,39.16
2023-02-27T13:11:37.430Z,38.66
2023-02-27T13:14:47.946Z,39.55
2023-02-27T13:18:09.292Z,38.92
2023-02-27T13:21:28.099Z,41.12
2023-02-27T13:24:34.960Z,40.05
2023-02-27T13:27:45.389Z,39.58
2023-02-27T13:31:27.127Z,39.69
2023-02-27T13:34:52.658Z,40.07
2023-02-27T13:38:05.309Z,39.84
2023-02-27T13:41:29.086Z,39.80
2023-02-27T13:44:40.107Z,39.84
2023-02-27T13:47:49.960Z,40.86
2023-02-27T13:50:52.981Z,40.91
2023-02-27T13:54:13.373Z,41.39
2023-02-27T13:57:27.457Z,40.79
2023-02-27T14:00:32.440Z,40.26
2023-02-27T14:03:35.307Z,39.04
2023-02-27T14:06:45.702Z,38.72
2023-02-27T14:09:51.755Z,39.28
2023-02-27T14:12:54.304Z,40.23
2023-02-27T14:16:00.766Z,40.46
2023-02-27T14:19:16.066Z,40.81
2023-02-27T14:22:19.482Z,40.14
2023-02-27T14:25:30.867Z,39.98
2023-02-27T14:28:42.315Z,40.11
2023-02-27T14:31:45.879Z,40.00
2023-02-27T14:34:52.291Z,40.10
2023-02-27T14:37:55.028Z,39.93
2023-02-27T14:41:12.081Z,40.96
2023-02-27T14:44:44.359Z,39.84
2023-02-27T14:47:47.301Z,40.08
2023-02-27T14:50:59.063Z,40.49
2023-02-27T14:54:23.929Z,41.33
2023-02-27T14:57:28.980Z,40.44
2023-02-27T15:00:51.094Z,40.50
2023-02-27T15:03:56.856Z,40.13
2023-02-27T15:07:00.927Z,40.93
2023-02-27T15:10:07.825Z,40.10
2023-02-27T15:13:45.502Z,42.08
2023-02-27T15:16:51.176Z,41.64
2023-02-27T15:19:59.610Z,41.85
2023-02-27T15:23:26.681Z,41.40
2023-02-27T15:26:34.467Z,40.82
2023-02-27T15:29:51.498Z,40.88
2023-02-27T15:32:57.864Z,40.94
2023-02-27T15:36:01.560Z,43.01
2023-02-27T15:39:21.319Z,40.60
2023-02-27T15:42:29.690Z,41.05
2023-02-27T15:45:35.084Z,41.69
2023-02-27T15:48:37.574Z,41.99
2023-02-27T15:51:40.529Z,42.01
2023-02-27T15:54:54.724Z,43.30
2023-02-27T15:58:03.509Z,43.08
2023-02-27T16:01:08.690Z,42.36
2023-02-27T16:04:31.480Z,43.75
2023-02-27T16:07:43.478Z,43.59
2023-02-27T16:10:49.083Z,43.29
2023-02-27T16:13:55.193Z,44.67
2023-02-27T16:16:57.917Z,45.13
2023-02-27T16:20:02.535Z,46.24
2023-02-27T16:23:27.492Z,45.52
2023-02-27T16:26:32.619Z,46.59
2023-02-27T16:29:44.234Z,46.39
2023-02-27T16:32:47.147Z,46.26
2023-02-27T16:35:50.990Z,46.09
2023-02-27T16:38:54.069Z,46.74
2023-02-27T16:42:00.866Z,45.91
2023-02-27T16:45:03.566Z,45.77
2023-02-27T16:48:07.396Z,47.11
2023-02-27T16:51:16.415Z,47.01
2023-02-27T16:54:19.777Z,46.46
2023-02-27T16:57:29.279Z,47.80
2023-02-27T17:00:34.104Z,47.00
2023-02-27T17:03:36.548Z,48.40
2023-02-27T17:06:39.208Z,47.68
2023-02-27T17:09:46.226Z,46.86
2023-02-27T17:12:49.652Z,47.43
2023-02-27T17:15:52.188Z,48.13
2023-02-27T17:18:55.021Z,48.54
2023-02-27T17:21:57.537Z,48.78
2023-02-27T17:25:00.854Z,47.52
2023-02-27T17:28:03.894Z,48.21
2023-02-27T17:31:11.933Z,48.00
2023-02-27T17:34:16.052Z,47.92
2023-02-27T17:37:19.750Z,48.29
2023-02-27T17:40:22.731Z,47.17
2023-02-27T17:43:27.608Z,47.82
2023-02-27T17:46:31.751Z,48.03
2023-02-27T17:49:37.773Z,49.75
2023-02-27T17:52:40.760Z,49.43
2023-02-27T17:55:44.368Z,49.20
2023-02-27T17:58:47.980Z,48.31
2023-02-27T18:01:51.035Z,48.45
2023-02-27T18:04:53.678Z,48.34
2023-02-27T18:07:56.149Z,49.40
2023-02-27T18:10:59.944Z,49.39
2023-02-27T18:14:05.233Z,49.03
2023-02-27T18:17:12.424Z,49.62
2023-02-27T18:20:15.012Z,49.53
2023-02-27T18:23:17.634Z,50.75
2023-02-27T18:26:30.082Z,50.08
2023-02-27T18:29:34.148Z,52.22
2023-02-27T18:32:40.049Z,53.32
2023-02-27T18:35:42.958Z,52.33
2023-02-27T18:38:45.773Z,52.92
2023-02-27T18:41:50.570Z,52.17
2023-02-27T18:44:55.005Z,52.34
2023-02-27T18:47:57.534Z,51.75
2023-02-27T18:51:05.997Z,52.93
2023-02-27T18:54:12.785Z,52.28
2023-02-27T18:57:15.533Z,52.13
2023-02-27T19:00:19.252Z,53.31
2023-02-27T19:03:21.567Z,53.66
2023-02-27T19:06:24.688Z,52.75
2023-02-27T19:09:34.428Z,52.65
2023-02-27T19:12:37.240Z,52.97
2023-02-27T19:15:40.264Z,52.65
2023-02-27T19:18:42.902Z,52.70
2023-02-27T19:21:47.955Z,52.92
2023-02-27T19:24:50.594Z,54.40
2023-02-27T19:27:54.725Z,53.80
2023-02-27T19:30:58.348Z,54.23
2023-02-27T19:34:01.262Z,54.90
2023-02-27T19:37:04.151Z,54.06
2023-02-27T19:40:07.318Z,54.68
2023-02-27T19:43:15.157Z,55.49
2023-02-27T19:46:29.043Z,54.19
2023-02-27T19:49:32.688Z,54.82
2023-02-27T19:52:40.588Z,54.26
2023-02-27T19:55:43.079Z,54.08
2023-02-27T19:58:46.891Z,54.13
2023-02-27T20:01:49.765Z,54.89
2023-02-27T20:04:52.376Z,54.11
2023-02-27T20:07:54.656Z,55.41
2023-02-27T20:11:00.663Z,54.36
2023-02-27T20:14:03.436Z,54.25
2023-02-27T20:17:06.434Z,54.18
2023-02-27T20:20:09.554Z,54.20
2023-02-27T20:23:17.025Z,54.75
2023-02-27T20:26:28.178Z,54.90
2023-02-27T20:29:31.142Z,54.64
2023-02-27T20:32:33.467Z,54.40
2023-02-27T20:35:40.204Z,54.77
2023-02-27T20:38:43.050Z,55.06
2023-02-27T20:41:46.104Z,55.15
2023-02-27T20:44:49.393Z,54.80
2023-02-27T20:47:51.935Z,55.35
2023-02-27T20:50:54.130Z,56.13
2023-02-27T20:53:59.638Z,57.11
2023-02-27T20:57:02.287Z,55.28
2023-02-27T21:00:05.924Z,55.37
2023-02-27T21:03:08.094Z,55.87
2023-02-27T21:06:14.691Z,55.70
2023-02-27T21:09:17.102Z,55.30
2023-02-27T21:12:19.703Z,56.17
2023-02-27T21:15:23.126Z,56.38
2023-02-27T21:18:25.683Z,55.54
2023-02-27T21:26:04.715Z,55.79
2023-02-27T21:29:19.635Z,56.24
2023-02-27T21:32:21.946Z,55.35
2023-02-27T21:35:24.699Z,55.90
2023-02-27T21:38:26.927Z,56.50
2023-02-27T21:41:30.704Z,56.48
2023-02-27T21:44:33.185Z,58.42
2023-02-27T21:47:35.759Z,57.02
2023-02-27T21:50:38.212Z,56.38
2023-02-27T21:53:42.069Z,55.89
2023-02-27T21:56:45.710Z,56.98
2023-02-27T21:59:48.464Z,56.36
2023-02-27T22:02:50.721Z,56.56
2023-02-27T22:05:53.397Z,56.00
2023-02-27T22:08:57.158Z,56.08
2023-02-27T22:12:00.114Z,56.30
2023-02-27T22:15:02.863Z,56.52
2023-02-27T22:18:06.526Z,56.19
2023-02-27T22:21:22.743Z,54.87
2023-02-27T22:24:50.349Z,54.73
2023-02-27T22:27:52.864Z,54.59
2023-02-27T22:31:06.701Z,54.84
2023-02-27T22:34:13.797Z,54.20
2023-02-27T22:37:19.257Z,55.26
2023-02-27T22:40:21.606Z,54.32
2023-02-27T22:43:24.474Z,54.63
2023-02-27T22:46:38.674Z,54.46
2023-02-27T22:49:41.621Z,55.10
2023-02-27T22:52:43.764Z,56.06
2023-02-27T22:55:53.166Z,56.72
2023-02-27T22:58:55.850Z,56.35
2023-02-27T23:01:58.565Z,55.61
2023-02-27T23:05:00.869Z,56.19
2023-02-27T23:08:03.686Z,57.43
2023-02-27T23:11:06.275Z,57.81
2023-02-27T23:14:09.652Z,56.02
2023-02-27T23:17:11.852Z,55.94
2023-02-27T23:20:14.824Z,56.59
2023-02-27T23:23:17.074Z,55.35
2023-02-27T23:26:20.004Z,55.09
2023-02-27T23:29:22.195Z,55.59
2023-02-27T23:32:24.800Z,57.45
2023-02-27T23:35:28.243Z,57.57
2023-02-27T23:38:30.848Z,57.60
2023-02-27T23:41:33.685Z,58.88
2023-02-27T23:44:36.259Z,58.43
2023-02-27T23:47:44.684Z,58.42
2023-02-27T23:50:47.970Z,57.76
2023-02-27T23:53:50.826Z,58.17
2023-02-27T23:56:53.381Z,58.09
2023-02-27T23:59:55.546Z,58.76
